createdAt,value
2019-04-22T09:10:25.723Z,99.90
2019-04-22T09:15:31.133Z,38.00
2019-04-22T09:18:06.813Z,36.30
2019-04-22T09:20:32.556Z,36.60
2019-04-22T09:23:07.687Z,36.90
2019-04-22T09:25:40.246Z,36.40
2019-04-22T09:28:08.713Z,37.10
2019-04-22T09:33:14.489Z,38.10
2019-04-22T09:38:31.218Z,39.10
2019-04-22T09:40:47.053Z,39.10
2019-04-22T09:43:24.455Z,38.20
2019-04-22T09:45:47.727Z,36.90
2019-04-22T09:48:23.194Z,36.90
2019-04-22T09:50:52.005Z,36.60
2019-04-22T09:53:29.724Z,37.20
2019-04-22T09:55:56.785Z,37.80
2019-04-22T09:58:38.564Z,37.60
2019-04-22T10:01:18.692Z,36.50
2019-04-22T10:03:49.741Z,34.80
2019-04-22T10:06:22.864Z,34.50
2019-04-22T10:11:24.711Z,35.00
2019-04-22T10:13:53.642Z,35.70
2019-04-22T10:16:25.337Z,34.60
2019-04-22T10:18:54.463Z,34.20
2019-04-22T10:21:35.801Z,34.50
2019-04-22T10:24:01.750Z,35.10
2019-04-22T10:26:28.311Z,35.50
2019-04-22T10:29:03.461Z,35.60
2019-04-22T10:31:46.239Z,35.50
2019-04-22T10:33:53.167Z,35.00
2019-04-22T10:36:09.779Z,34.50
2019-04-22T10:38:40.228Z,33.30
2019-04-22T10:41:10.405Z,32.80
2019-04-22T10:43:41.224Z,33.60
2019-04-22T10:46:12.119Z,34.30
2019-04-22T10:48:42.474Z,35.20
2019-04-22T10:51:12.730Z,34.50
2019-04-22T10:53:43.814Z,33.40
2019-04-22T10:56:14.918Z,33.10
2019-04-22T10:58:44.749Z,34.40
2019-04-22T11:01:15.853Z,34.80
2019-04-22T11:03:45.734Z,33.60
2019-04-22T11:06:17.044Z,33.10
2019-04-22T11:08:53.983Z,33.30
2019-04-22T11:11:30.206Z,32.80
2019-04-22T11:13:49.784Z,33.00
2019-04-22T11:16:21.402Z,32.60
2019-04-22T11:18:51.715Z,32.20
2019-04-22T11:21:21.629Z,30.90
2019-04-22T11:23:52.491Z,32.10
2019-04-22T11:26:23.773Z,32.00
2019-04-22T11:28:55.877Z,32.20
2019-04-22T11:31:26.394Z,30.60
2019-04-22T11:33:56.647Z,29.90
2019-04-22T11:36:30.134Z,30.00
2019-04-22T11:39:02.012Z,30.70
2019-04-22T11:41:29.339Z,29.60
2019-04-22T11:43:59.152Z,30.20
2019-04-22T11:46:29.779Z,30.20
2019-04-22T11:49:00.316Z,30.30
2019-04-22T11:51:31.801Z,30.80
2019-04-22T11:54:02.915Z,30.70
2019-04-22T11:56:32.914Z,33.10
2019-04-22T11:59:02.736Z,34.40
2019-04-22T12:01:33.195Z,34.90
2019-04-22T12:04:04.050Z,35.30
2019-04-22T12:06:35.832Z,33.60
2019-04-22T12:09:13.509Z,34.60
2019-04-22T12:11:44.415Z,36.10
2019-04-22T12:14:15.895Z,38.80
2019-04-22T12:16:45.796Z,40.00
2019-04-22T12:19:16.272Z,41.10
2019-04-22T12:21:46.834Z,40.00
2019-04-22T12:24:17.275Z,39.80
2019-04-22T12:26:48.302Z,41.20
2019-04-22T12:29:17.992Z,41.70
2019-04-22T12:31:49.345Z,42.00
2019-04-22T12:34:19.639Z,42.10
2019-04-22T12:36:50.755Z,42.00
2019-04-22T12:39:21.314Z,42.00
2019-04-22T12:41:52.139Z,42.40
2019-04-22T12:44:22.222Z,42.70
2019-04-22T12:46:52.285Z,43.70
2019-04-22T12:49:22.518Z,43.80
2019-04-22T12:51:52.315Z,44.20
2019-04-22T12:54:21.857Z,43.40
2019-04-22T12:56:51.554Z,43.30
2019-04-22T12:59:21.568Z,43.00
2019-04-22T13:01:51.374Z,41.90
2019-04-22T13:04:23.163Z,40.90
2019-04-22T13:06:53.436Z,41.00
2019-04-22T13:09:23.386Z,41.00
2019-04-22T13:11:53.053Z,40.50
2019-04-22T13:14:23.240Z,40.70
2019-04-22T13:16:54.853Z,40.40
2019-04-22T13:19:26.460Z,40.00
2019-04-22T13:21:56.617Z,39.80
2019-04-22T13:24:27.850Z,39.50
2019-04-22T13:26:59.078Z,39.70
2019-04-22T13:29:28.728Z,40.10
2019-04-22T13:32:00.421Z,40.30
2019-04-22T13:34:37.758Z,40.00
2019-04-22T13:37:03.107Z,40.90
2019-04-22T13:39:32.940Z,41.30
2019-04-22T13:42:05.982Z,40.80
2019-04-22T13:44:35.597Z,38.60
2019-04-22T13:47:19.789Z,38.90
2019-04-22T13:50:13.593Z,38.10
2019-04-22T13:55:05.331Z,39.90
2019-04-22T13:57:32.993Z,40.90
2019-04-22T13:59:48.626Z,41.10
2019-04-22T14:02:16.907Z,41.20
2019-04-22T14:04:48.463Z,41.70
2019-04-22T14:07:18.990Z,41.40
2019-04-22T14:09:48.800Z,41.70
2019-04-22T14:12:21.304Z,39.10
2019-04-22T14:14:52.148Z,41.70
2019-04-22T14:17:21.178Z,42.20
2019-04-22T14:19:51.037Z,42.30
2019-04-22T14:22:22.023Z,41.80
2019-04-22T14:24:52.387Z,41.70
2019-04-22T14:27:37.298Z,41.90
2019-04-22T14:29:53.732Z,42.20
2019-04-22T14:32:27.467Z,41.90
2019-04-22T14:34:55.322Z,42.10
2019-04-22T14:37:25.134Z,42.10
2019-04-22T14:39:55.791Z,42.30
2019-04-22T14:42:44.051Z,41.80
2019-04-22T14:45:25.547Z,42.00
2019-04-22T14:47:55.993Z,42.00
2019-04-22T14:50:23.718Z,42.00
2019-04-22T14:52:50.707Z,40.90
2019-04-22T14:55:12.638Z,41.00
2019-04-22T14:57:35.524Z,41.00
2019-04-22T15:00:11.522Z,41.20
2019-04-22T15:02:41.816Z,41.10
2019-04-22T15:05:14.462Z,40.20
2019-04-22T15:07:44.568Z,40.50
2019-04-22T15:10:18.014Z,40.60
2019-04-22T15:12:50.235Z,40.70
2019-04-22T15:15:44.201Z,41.50
2019-04-22T15:18:23.987Z,42.10
2019-04-22T15:20:56.528Z,42.80
2019-04-22T15:23:26.795Z,42.10
2019-04-22T15:25:56.831Z,42.10
2019-04-22T15:28:27.175Z,42.40
2019-04-22T15:30:57.467Z,42.70
2019-04-22T15:33:29.538Z,42.10
2019-04-22T15:35:59.387Z,41.90
2019-04-22T15:38:30.229Z,42.20
2019-04-22T15:41:00.990Z,42.80
2019-04-22T15:43:33.297Z,43.00
2019-04-22T15:46:03.797Z,42.90
2019-04-22T15:48:34.737Z,42.70
2019-04-22T15:51:06.836Z,42.90
2019-04-22T15:53:37.820Z,42.90
2019-04-22T15:56:08.535Z,42.70
2019-04-22T15:58:39.635Z,43.10
2019-04-22T16:01:17.748Z,43.00
2019-04-22T16:03:40.950Z,43.00
2019-04-22T16:06:10.515Z,42.70
2019-04-22T16:08:41.150Z,43.00
2019-04-22T16:11:11.721Z,42.80
2019-04-22T16:13:42.329Z,42.90
2019-04-22T16:16:12.438Z,43.00
2019-04-22T16:18:42.273Z,42.60
2019-04-22T16:21:13.102Z,42.70
2019-04-22T16:23:42.879Z,43.10
2019-04-22T16:26:20.311Z,42.80
2019-04-22T16:28:53.719Z,42.90
2019-04-22T16:31:21.947Z,42.80
2019-04-22T16:33:52.481Z,43.10
2019-04-22T16:36:22.777Z,43.50
2019-04-22T16:38:53.237Z,43.50
2019-04-22T16:41:24.554Z,43.80
2019-04-22T16:43:54.410Z,43.90
2019-04-22T16:46:25.285Z,43.90
2019-04-22T16:48:56.011Z,44.60
2019-04-22T16:51:27.641Z,43.80
2019-04-22T16:53:58.015Z,43.80
2019-04-22T16:56:29.650Z,43.90
2019-04-22T16:59:00.976Z,43.80
2019-04-22T17:01:43.254Z,43.70
2019-04-22T17:04:24.850Z,43.90
2019-04-22T17:06:55.463Z,43.60
2019-04-22T17:09:25.791Z,43.50
2019-04-22T17:11:56.200Z,43.80
2019-04-22T17:14:34.904Z,44.20
2019-04-22T17:16:57.660Z,44.60
2019-04-22T17:19:29.123Z,45.00
2019-04-22T17:21:59.567Z,45.20
2019-04-22T17:24:29.993Z,45.30
2019-04-22T17:27:00.144Z,45.60
2019-04-22T17:29:30.428Z,46.10
2019-04-22T17:32:06.425Z,46.60
2019-04-22T17:34:31.982Z,46.70
2019-04-22T17:37:04.120Z,47.40
2019-04-22T17:39:45.195Z,47.60
2019-04-22T17:42:25.197Z,48.00
2019-04-22T17:45:07.595Z,48.30
2019-04-22T17:47:30.253Z,48.40
2019-04-22T17:50:11.813Z,48.40
2019-04-22T17:52:42.214Z,48.50
2019-04-22T17:55:12.669Z,48.60
2019-04-22T17:57:46.351Z,48.90
2019-04-22T18:00:15.329Z,49.40
2019-04-22T18:02:45.743Z,49.70
2019-04-22T18:05:03.472Z,49.90
2019-04-22T18:07:52.179Z,50.00
2019-04-22T18:10:32.455Z,50.20
2019-04-22T18:13:01.896Z,50.20
2019-04-22T18:15:23.986Z,50.10
2019-04-22T18:18:00.879Z,50.40
2019-04-22T18:20:24.086Z,50.50
2019-04-22T18:22:54.779Z,50.30
2019-04-22T18:25:29.489Z,50.10
2019-04-22T18:28:13.485Z,50.00
2019-04-22T18:30:28.785Z,49.90
2019-04-22T18:33:07.604Z,50.10
2019-04-22T18:35:39.374Z,49.90
2019-04-22T18:38:18.134Z,49.50
2019-04-22T18:40:45.864Z,49.60
2019-04-22T18:43:16.939Z,50.20
2019-04-22T18:45:55.023Z,49.40
2019-04-22T18:48:08.944Z,49.50
2019-04-22T18:51:09.639Z,49.50
2019-04-22T18:53:52.012Z,49.40
2019-04-22T18:56:16.700Z,49.60
2019-04-22T18:58:42.002Z,49.80
2019-04-22T19:00:57.762Z,49.90
2019-04-22T19:03:31.709Z,49.80
2019-04-22T19:06:31.905Z,49.90
2019-04-22T19:08:55.678Z,49.80
2019-04-22T19:11:22.375Z,50.10
2019-04-22T19:16:40.021Z,50.10
2019-04-22T19:19:20.951Z,50.30
2019-04-22T19:21:26.296Z,50.30
2019-04-22T19:24:03.132Z,50.00
2019-04-22T19:26:44.296Z,49.80
2019-04-22T19:29:00.249Z,49.80
2019-04-22T19:31:34.896Z,49.80
2019-04-22T19:34:09.361Z,49.80
2019-04-22T19:36:40.895Z,50.00
2019-04-22T19:39:04.314Z,49.90
2019-04-22T19:41:41.020Z,49.80
2019-04-22T19:44:14.547Z,49.70
2019-04-22T19:46:54.621Z,49.70
2019-04-22T19:49:23.817Z,49.90
2019-04-22T19:51:58.836Z,50.40
2019-04-22T19:54:17.408Z,50.60
2019-04-22T19:56:42.788Z,50.60
2019-04-22T19:59:14.919Z,50.40
2019-04-22T20:02:00.715Z,50.40
2019-04-22T20:07:09.855Z,51.10
2019-04-22T20:09:49.482Z,50.60
2019-04-22T20:12:12.956Z,50.90
2019-04-22T20:14:48.090Z,50.90
2019-04-22T20:17:19.343Z,51.00
2019-04-22T20:19:55.295Z,51.10
2019-04-22T20:22:17.751Z,50.90
2019-04-22T20:24:43.538Z,51.00
2019-04-22T20:27:22.464Z,50.60
2019-04-22T20:29:58.271Z,50.20
2019-04-22T20:32:29.243Z,50.20
2019-04-22T20:35:04.099Z,50.00
2019-04-22T20:37:35.657Z,49.90
2019-04-22T20:40:00.271Z,50.00
2019-04-22T20:42:46.688Z,49.40
2019-04-22T20:45:09.612Z,49.40
2019-04-22T20:47:32.221Z,49.50
2019-04-22T20:50:15.739Z,49.50
2019-04-22T20:52:46.807Z,49.30
2019-04-22T20:55:07.745Z,49.50
2019-04-22T20:57:47.758Z,49.50
2019-04-22T21:00:08.883Z,49.70
2019-04-22T21:02:39.101Z,49.90
2019-04-22T21:05:13.457Z,49.90
2019-04-22T21:07:49.882Z,50.50
2019-04-22T21:10:15.795Z,50.80
2019-04-22T21:12:42.826Z,51.10
2019-04-22T21:15:29.072Z,51.00
2019-04-22T21:17:53.501Z,51.00
2019-04-22T21:20:33.391Z,51.00
2019-04-22T21:23:02.302Z,51.40
2019-04-22T21:25:24.252Z,51.50
2019-04-22T21:28:04.594Z,51.50
2019-04-22T21:30:31.945Z,51.60
2019-04-22T21:33:05.532Z,51.90
2019-04-22T21:35:57.987Z,52.20
2019-04-22T21:38:09.782Z,52.50
2019-04-22T21:40:40.377Z,52.60
2019-04-22T21:43:12.031Z,52.90
2019-04-22T21:45:39.264Z,53.40
2019-04-22T21:48:28.116Z,53.60
2019-04-22T21:50:58.042Z,54.40
2019-04-22T21:53:25.235Z,54.70
2019-04-22T21:56:10.165Z,54.80
2019-04-22T21:58:49.510Z,54.70
2019-04-22T22:01:28.884Z,55.10
2019-04-22T22:03:57.271Z,55.50
2019-04-22T22:06:15.177Z,55.70
2019-04-22T22:08:56.886Z,55.70
2019-04-22T22:11:24.087Z,55.90
2019-04-22T22:13:59.199Z,55.90
2019-04-22T22:16:30.798Z,56.20
2019-04-22T22:19:08.099Z,56.60
2019-04-22T22:21:43.964Z,56.90
2019-04-22T22:24:10.036Z,57.10
2019-04-22T22:26:39.959Z,57.60
2019-04-22T22:31:47.136Z,57.70
2019-04-22T22:34:15.157Z,58.20
2019-04-22T22:36:36.691Z,58.20
2019-04-22T22:39:08.733Z,58.20
2019-04-22T22:41:25.965Z,58.70
2019-04-22T22:44:03.333Z,58.60
2019-04-22T22:46:39.244Z,58.90
2019-04-22T22:49:24.757Z,59.30
2019-04-22T22:51:53.291Z,60.00
2019-04-22T22:54:23.988Z,60.30
2019-04-22T22:57:01.649Z,61.40
2019-04-22T22:59:29.372Z,61.70
2019-04-22T23:01:54.515Z,62.10
2019-04-22T23:04:35.631Z,62.80
2019-04-22T23:07:00.427Z,62.80
2019-04-22T23:09:30.914Z,63.00
2019-04-22T23:12:30.286Z,63.10
2019-04-22T23:14:38.211Z,63.20
2019-04-22T23:16:55.584Z,63.10
2019-04-22T23:19:19.898Z,63.00
2019-04-22T23:21:52.715Z,62.90
2019-04-22T23:24:58.534Z,63.00
2019-04-22T23:27:40.147Z,63.10
2019-04-22T23:30:20.894Z,63.20
2019-04-22T23:32:58.138Z,62.70
2019-04-22T23:35:36.904Z,62.60
2019-04-22T23:38:13.783Z,62.90
2019-04-22T23:40:42.522Z,63.60
2019-04-22T23:43:23.820Z,64.00
2019-04-22T23:46:02.906Z,63.90
2019-04-22T23:48:25.989Z,63.40
2019-04-22T23:51:03.373Z,63.80
2019-04-22T23:53:57.613Z,64.00
2019-04-22T23:56:09.204Z,63.80
